Time;durP1;ratioP1;P1;durP2;ratioP2;P2;SDS_P1;SDS_P2;PMS_P1;PMS_P2;Temp;Humidity;BMP_temperature;BMP_pressure;BME280_temperature;BME280_humidity;BME280_pressure;Samples;Min_cycle;Max_cycle;Signal;HPM_P1;HPM_P2
2022/11/29 00:01:16;;;;;;;32.97;20.07;;;4.00;99.90;;;;;;4996534;28;20227;-82
2022/11/29 00:03:43;;;;;;;31.07;20.70;;;4.00;99.90;;;;;;5021864;28;20233;-79
2022/11/29 00:06:13;;;;;;;33.27;21.43;;;4.00;99.90;;;;;;5019980;28;20260;-82
2022/11/29 00:08:41;;;;;;;34.17;20.73;;;4.00;99.90;;;;;;5013164;28;20294;-82
2022/11/29 00:11:09;;;;;;;32.33;20.77;;;4.00;99.90;;;;;;5031136;28;20217;-84
2022/11/29 00:13:35;;;;;;;32.63;21.17;;;4.00;99.90;;;;;;5013496;28;20228;-81
2022/11/29 00:16:03;;;;;;;32.70;21.70;;;4.00;99.90;;;;;;4995233;28;20231;-81
2022/11/29 00:18:31;;;;;;;36.70;21.60;;;4.00;99.90;;;;;;5018628;28;20232;-84
2022/11/29 00:20:58;;;;;;;35.37;21.37;;;4.00;99.90;;;;;;5023034;28;20223;-84
2022/11/29 00:23:25;;;;;;;34.47;21.43;;;4.00;99.90;;;;;;5006202;28;20230;-83
2022/11/29 00:25:52;;;;;;;33.40;21.53;;;4.00;99.90;;;;;;5005149;28;20342;-81
2022/11/29 00:28:19;;;;;;;32.80;20.40;;;4.00;99.90;;;;;;5020351;28;20221;-83
2022/11/29 00:30:46;;;;;;;32.63;21.33;;;4.00;99.90;;;;;;5019240;28;20809;-82
2022/11/29 00:33:13;;;;;;;33.80;21.83;;;4.00;99.90;;;;;;5021619;28;20222;-80
2022/11/29 00:35:41;;;;;;;36.03;21.27;;;4.00;99.90;;;;;;5011556;28;20305;-84
2022/11/29 00:38:08;;;;;;;33.30;21.07;;;4.00;99.90;;;;;;5009892;28;20302;-80
2022/11/29 00:40:35;;;;;;;36.70;22.67;;;4.00;99.90;;;;;;5014167;28;20263;-80
2022/11/29 00:43:02;;;;;;;36.43;21.20;;;4.00;99.90;;;;;;5011448;28;20236;-80
2022/11/29 00:45:28;;;;;;;34.07;22.10;;;4.00;99.90;;;;;;5009590;28;20264;-80
2022/11/29 00:47:55;;;;;;;36.47;22.80;;;4.10;99.90;;;;;;5015666;28;20300;-81
2022/11/29 00:50:22;;;;;;;35.13;22.30;;;4.00;99.90;;;;;;5017319;28;20233;-81
2022/11/29 00:52:50;;;;;;;36.63;22.40;;;4.00;99.90;;;;;;5014486;28;20280;-80
2022/11/29 00:55:17;;;;;;;36.03;21.73;;;4.00;99.90;;;;;;5019782;28;20822;-81
2022/11/29 00:57:43;;;;;;;37.60;22.70;;;4.00;99.90;;;;;;5015554;28;20823;-82
2022/11/29 01:00:11;;;;;;;39.93;23.27;;;4.00;99.90;;;;;;5011445;28;20220;-81
2022/11/29 01:02:38;;;;;;;37.60;22.10;;;4.00;99.90;;;;;;5017848;28;20228;-81
2022/11/29 01:05:05;;;;;;;35.50;23.30;;;4.00;99.90;;;;;;5020204;28;20222;-82
2022/11/29 01:07:32;;;;;;;36.73;22.57;;;4.00;99.90;;;;;;5017331;28;20263;-83
2022/11/29 01:10:01;;;;;;;36.30;22.47;;;4.00;99.90;;;;;;5020161;28;20225;-81
2022/11/29 01:12:27;;;;;;;37.47;23.40;;;3.90;99.90;;;;;;5017638;28;20229;-81
2022/11/29 01:14:54;;;;;;;33.53;21.43;;;4.00;99.90;;;;;;5020578;28;20226;-83
2022/11/29 01:17:21;;;;;;;45.47;23.67;;;3.90;99.90;;;;;;5018322;28;20783;-81
2022/11/29 01:19:48;;;;;;;38.63;22.23;;;3.90;99.90;;;;;;5022335;28;21292;-82
2022/11/29 01:22:14;;;;;;;39.67;23.53;;;3.90;99.90;;;;;;5022744;28;20224;-84
2022/11/29 01:24:41;;;;;;;36.77;23.00;;;3.90;99.90;;;;;;5018003;28;20232;-82
2022/11/29 01:27:09;;;;;;;35.50;22.73;;;3.90;99.90;;;;;;5023994;28;20228;-80
2022/11/29 01:29:36;;;;;;;37.97;23.20;;;3.90;99.90;;;;;;5018848;28;20926;-81
2022/11/29 01:32:03;;;;;;;36.63;23.33;;;3.90;99.90;;;;;;5019324;28;20223;-82
2022/11/29 01:34:29;;;;;;;37.80;23.30;;;3.90;99.90;;;;;;5020812;28;20695;-83
2022/11/29 01:36:56;;;;;;;36.67;22.73;;;3.90;99.90;;;;;;5024052;28;20229;-80
2022/11/29 01:39:23;;;;;;;39.73;23.03;;;3.90;99.90;;;;;;5017523;28;20923;-80
2022/11/29 01:41:50;;;;;;;37.53;22.97;;;3.90;99.90;;;;;;5027964;28;20809;-84
2022/11/29 01:44:54;;;;;;;39.43;23.67;;;3.90;99.90;;;;;;5021240;28;20242;-84
2022/11/29 01:47:22;;;;;;;39.33;23.67;;;3.90;99.90;;;;;;5016372;28;20937;-81
2022/11/29 01:49:50;;;;;;;36.47;22.60;;;3.90;99.90;;;;;;5015093;28;20229;-81
2022/11/29 01:52:20;;;;;;;39.93;24.57;;;3.90;99.90;;;;;;5012573;28;20800;-82
2022/11/29 01:54:50;;;;;;;39.20;24.03;;;3.90;99.90;;;;;;5012404;28;20244;-84
2022/11/29 01:57:18;;;;;;;41.77;23.93;;;3.90;99.90;;;;;;5020153;28;20573;-81
2022/11/29 01:59:48;;;;;;;38.70;23.73;;;3.90;99.90;;;;;;5020321;28;20225;-81
2022/11/29 02:02:18;;;;;;;40.70;23.97;;;3.90;99.90;;;;;;5019487;28;20213;-81
2022/11/29 02:04:48;;;;;;;40.90;22.90;;;3.90;99.90;;;;;;5017549;28;20217;-81
2022/11/29 02:07:15;;;;;;;40.70;23.60;;;3.80;99.90;;;;;;5014386;28;20254;-81
2022/11/29 02:09:41;;;;;;;45.13;25.13;;;3.90;99.90;;;;;;5012375;28;20259;-81
2022/11/29 02:12:20;;;;;;;37.63;23.47;;;3.80;99.90;;;;;;5017585;28;20231;-82
2022/11/29 02:15:04;;;;;;;40.83;25.60;;;3.80;99.90;;;;;;5018412;28;20240;-84
2022/11/29 02:17:40;;;;;;;45.13;26.97;;;3.80;99.90;;;;;;5020946;28;20221;-82
2022/11/29 02:20:31;;;;;;;40.33;24.70;;;3.80;99.90;;;;;;5019319;28;20287;-81
2022/11/29 02:23:16;;;;;;;44.63;25.87;;;3.80;99.90;;;;;;5018521;28;20248;-84
2022/11/29 02:26:01;;;;;;;40.40;24.63;;;3.80;99.90;;;;;;5014478;28;20826;-82
2022/11/29 02:29:03;;;;;;;42.50;24.70;;;3.80;99.90;;;;;;5018241;28;20228;-80
2022/11/29 02:32:15;;;;;;;41.03;25.70;;;3.80;99.90;;;;;;5013356;28;20787;-82
2022/11/29 02:34:58;;;;;;;41.37;24.43;;;3.80;99.90;;;;;;5017558;28;20242;-81
2022/11/29 02:37:55;;;;;;;41.67;25.00;;;3.70;99.90;;;;;;5043892;28;20235;-81
2022/11/29 02:40:49;;;;;;;46.57;25.90;;;3.70;99.90;;;;;;5018596;28;20233;-80
2022/11/29 02:43:45;;;;;;;45.53;26.50;;;3.70;99.90;;;;;;5022057;28;20224;-81
2022/11/29 02:46:27;;;;;;;43.40;25.37;;;3.70;99.90;;;;;;5011322;28;20710;-81
2022/11/29 02:49:03;;;;;;;46.50;26.00;;;3.70;99.90;;;;;;5010106;28;20220;-81
2022/11/29 02:51:38;;;;;;;45.83;26.33;;;3.70;99.90;;;;;;5023228;28;20684;-83
2022/11/29 02:54:15;;;;;;;45.03;25.47;;;3.70;99.90;;;;;;5010689;28;20229;-82
2022/11/29 02:56:48;;;;;;;45.50;25.73;;;3.70;99.90;;;;;;5012818;28;20225;-80
2022/11/29 02:59:23;;;;;;;48.70;27.20;;;3.70;99.90;;;;;;5021559;28;20227;-80
2022/11/29 03:02:01;;;;;;;44.60;26.50;;;3.70;99.90;;;;;;5013320;28;20229;-83
2022/11/29 03:04:37;;;;;;;45.97;27.53;;;3.70;99.90;;;;;;5021507;28;20229;-82
2022/11/29 03:07:23;;;;;;;43.97;25.83;;;3.70;99.90;;;;;;5015067;28;20858;-80
2022/11/29 03:09:58;;;;;;;48.20;24.63;;;3.70;99.90;;;;;;5018337;28;20228;-82
2022/11/29 03:12:30;;;;;;;48.60;27.13;;;3.70;99.90;;;;;;5015270;28;20229;-80
2022/11/29 03:15:05;;;;;;;46.40;27.40;;;3.70;99.90;;;;;;5005657;28;20289;-82
2022/11/29 03:17:46;;;;;;;42.80;26.37;;;3.70;99.90;;;;;;5008792;28;20313;-84
2022/11/29 03:20:25;;;;;;;43.77;26.07;;;3.80;99.90;;;;;;4999460;28;20222;-81
2022/11/29 03:23:06;;;;;;;42.10;25.80;;;3.70;99.90;;;;;;4991172;28;20256;-84
2022/11/29 03:25:38;;;;;;;47.47;26.50;;;3.80;99.90;;;;;;5016031;28;20282;-82
2022/11/29 03:28:13;;;;;;;46.70;26.77;;;3.80;99.90;;;;;;5017479;28;20221;-81
2022/11/29 03:30:46;;;;;;;47.37;26.33;;;3.70;99.90;;;;;;5027236;28;20385;-85
2022/11/29 03:33:22;;;;;;;42.47;25.70;;;3.70;99.90;;;;;;5015348;28;20776;-82
2022/11/29 03:36:01;;;;;;;45.13;25.50;;;3.70;99.90;;;;;;5016697;28;20231;-81
2022/11/29 03:38:35;;;;;;;48.87;27.50;;;3.70;99.90;;;;;;5017674;28;20225;-85
2022/11/29 03:41:12;;;;;;;44.00;26.43;;;3.70;99.90;;;;;;5013716;28;20593;-83
2022/11/29 03:43:44;;;;;;;48.27;27.77;;;3.70;99.90;;;;;;5008636;28;20246;-82
2022/11/29 03:46:14;;;;;;;45.77;26.27;;;3.70;99.90;;;;;;5013823;28;20235;-82
2022/11/29 03:48:46;;;;;;;44.40;26.87;;;3.70;99.90;;;;;;5015738;28;20232;-83
2022/11/29 03:51:19;;;;;;;46.30;25.80;;;3.70;99.90;;;;;;5016314;28;20217;-84
2022/11/29 03:53:54;;;;;;;44.67;26.20;;;3.70;99.90;;;;;;5014167;28;20313;-83
2022/11/29 03:56:28;;;;;;;43.10;26.53;;;3.70;99.90;;;;;;5016214;28;20354;-81
2022/11/29 03:59:04;;;;;;;46.30;26.90;;;3.70;99.90;;;;;;5014251;28;20303;-81
2022/11/29 04:01:54;;;;;;;42.20;25.07;;;3.70;99.90;;;;;;5014316;28;20311;-85
2022/11/29 04:04:52;;;;;;;45.07;25.47;;;3.70;99.90;;;;;;5017450;28;21014;-83
2022/11/29 04:07:35;;;;;;;45.93;26.33;;;3.70;99.90;;;;;;5010267;28;20226;-83
2022/11/29 04:10:24;;;;;;;45.33;27.47;;;3.70;99.90;;;;;;5017587;28;20225;-81
2022/11/29 04:13:41;;;;;;;44.13;27.17;;;3.70;99.90;;;;;;5018413;28;20731;-80
2022/11/29 04:16:40;;;;;;;43.03;26.07;;;3.70;99.90;;;;;;5006706;28;20234;-85
2022/11/29 04:19:36;;;;;;;42.50;26.73;;;3.70;99.90;;;;;;4997693;28;20228;-80
2022/11/29 04:22:33;;;;;;;47.20;27.60;;;3.70;99.90;;;;;;4992250;28;20240;-80
2022/11/29 04:25:47;;;;;;;43.90;26.50;;;3.70;99.90;;;;;;5008641;28;20232;-81
2022/11/29 04:28:50;;;;;;;44.90;26.63;;;3.70;99.90;;;;;;4938477;28;20224;-80
2022/11/29 04:31:25;;;;;;;47.17;26.93;;;3.70;99.90;;;;;;5024451;28;20288;-81
2022/11/29 04:34:34;;;;;;;44.57;26.20;;;3.70;99.90;;;;;;5023029;28;20233;-80
2022/11/29 04:37:13;;;;;;;44.47;26.10;;;3.60;99.90;;;;;;4988281;28;20242;-82
2022/11/29 04:40:10;;;;;;;44.10;26.23;;;3.70;99.90;;;;;;5014080;28;20961;-82
2022/11/29 04:42:56;;;;;;;46.87;27.17;;;3.60;99.90;;;;;;5005121;28;20279;-81
2022/11/29 04:45:44;;;;;;;45.07;25.30;;;3.70;99.90;;;;;;5019138;28;20229;-83
2022/11/29 04:48:25;;;;;;;45.50;27.63;;;3.70;99.90;;;;;;5019915;28;20234;-80
2022/11/29 04:51:01;;;;;;;45.73;27.03;;;3.60;99.90;;;;;;5027807;28;20230;-81
2022/11/29 04:53:38;;;;;;;44.67;26.63;;;3.60;99.90;;;;;;5019065;28;20217;-84
2022/11/29 04:56:13;;;;;;;43.63;26.60;;;3.60;99.90;;;;;;5023266;28;20222;-80
2022/11/29 04:58:46;;;;;;;47.47;27.53;;;3.60;99.90;;;;;;5023366;28;20262;-81
2022/11/29 05:01:22;;;;;;;45.40;26.93;;;3.60;99.90;;;;;;5016025;28;20218;-82
2022/11/29 05:03:56;;;;;;;42.77;27.57;;;3.60;99.90;;;;;;5008620;28;20236;-81
2022/11/29 05:06:29;;;;;;;44.47;26.50;;;3.60;99.90;;;;;;5020726;28;20879;-82
2022/11/29 05:09:06;;;;;;;48.63;28.40;;;3.60;99.90;;;;;;5018157;28;20221;-81
2022/11/29 05:11:47;;;;;;;45.93;28.00;;;3.60;99.90;;;;;;5026094;28;20693;-81
2022/11/29 05:14:27;;;;;;;46.43;27.47;;;3.60;99.90;;;;;;5025734;28;20246;-82
2022/11/29 05:17:00;;;;;;;51.40;28.23;;;3.60;99.90;;;;;;5022528;28;20216;-82
2022/11/29 05:19:48;;;;;;;42.13;26.67;;;3.60;99.90;;;;;;5020154;28;20535;-80
2022/11/29 05:22:31;;;;;;;48.33;27.97;;;3.60;99.90;;;;;;5021209;28;20293;-81
2022/11/29 05:25:15;;;;;;;48.23;27.73;;;3.70;99.90;;;;;;5017688;28;20232;-81
2022/11/29 05:27:48;;;;;;;46.93;28.63;;;3.70;99.90;;;;;;5008855;28;20229;-81
2022/11/29 05:30:17;;;;;;;47.60;27.67;;;3.70;99.90;;;;;;5009278;28;20228;-79
2022/11/29 05:32:55;;;;;;;68.40;28.90;;;3.60;99.90;;;;;;5043620;28;20254;-79
2022/11/29 05:35:38;;;;;;;54.83;27.77;;;3.70;99.90;;;;;;5033218;28;20220;-78
2022/11/29 05:38:18;;;;;;;48.37;28.70;;;3.60;99.90;;;;;;5025989;28;20312;-77
2022/11/29 05:40:59;;;;;;;51.03;26.63;;;3.70;99.90;;;;;;5030296;28;20672;-80
2022/11/29 05:43:49;;;;;;;50.97;29.03;;;3.70;99.90;;;;;;5006784;28;20248;-78
2022/11/29 05:46:22;;;;;;;79.60;29.73;;;3.70;99.90;;;;;;5022305;28;20327;-79
2022/11/29 05:48:58;;;;;;;48.17;28.43;;;3.70;99.90;;;;;;5009624;28;20237;-80
2022/11/29 05:51:38;;;;;;;50.40;29.93;;;3.70;99.90;;;;;;5007989;28;20296;-80
2022/11/29 05:54:15;;;;;;;52.70;27.77;;;3.70;99.90;;;;;;5007217;28;20259;-79
2022/11/29 05:56:51;;;;;;;46.73;27.50;;;3.60;99.90;;;;;;5034212;28;20237;-79
2022/11/29 05:59:23;;;;;;;50.40;29.53;;;3.70;99.90;;;;;;5044690;28;21019;-80
2022/11/29 06:02:01;;;;;;;47.27;27.47;;;3.60;99.90;;;;;;5035669;28;20232;-79
2022/11/29 06:04:35;;;;;;;48.57;29.93;;;3.60;99.90;;;;;;5032513;28;20244;-80
2022/11/29 06:07:08;;;;;;;52.97;29.63;;;3.60;99.90;;;;;;5024889;28;20244;-79
2022/11/29 06:09:41;;;;;;;49.27;29.60;;;3.60;99.90;;;;;;5036574;28;20216;-79
2022/11/29 06:12:14;;;;;;;51.97;29.43;;;3.60;99.90;;;;;;5041073;28;20216;-79
2022/11/29 06:15:05;;;;;;;52.47;30.30;;;3.60;99.90;;;;;;5025944;28;20253;-79
2022/11/29 06:17:47;;;;;;;52.00;28.87;;;3.60;99.90;;;;;;5025226;28;20221;-79
2022/11/29 06:20:45;;;;;;;53.07;29.57;;;3.60;99.90;;;;;;5017251;28;20771;-80
2022/11/29 06:23:36;;;;;;;48.60;29.03;;;3.60;99.90;;;;;;5017283;28;20475;-83
2022/11/29 06:26:17;;;;;;;50.03;30.10;;;3.60;99.90;;;;;;5015976;28;20256;-82
2022/11/29 06:28:56;;;;;;;47.90;28.70;;;3.60;99.90;;;;;;5024025;28;20235;-80
2022/11/29 06:31:29;;;;;;;49.27;28.57;;;3.60;99.90;;;;;;5014248;28;20376;-80
2022/11/29 06:34:02;;;;;;;49.90;30.40;;;3.60;99.90;;;;;;5019859;28;20232;-80
2022/11/29 06:36:34;;;;;;;51.00;31.27;;;3.50;99.90;;;;;;5020594;28;20231;-80
2022/11/29 06:39:01;;;;;;;46.87;27.93;;;3.50;99.90;;;;;;5026922;28;20862;-83
2022/11/29 06:41:28;;;;;;;50.47;30.20;;;3.50;99.90;;;;;;5019782;28;20285;-81
2022/11/29 06:43:56;;;;;;;47.40;30.43;;;3.50;99.90;;;;;;5012985;28;20889;-81
2022/11/29 06:46:32;;;;;;;49.87;30.53;;;3.50;99.90;;;;;;5020820;28;20229;-82
2022/11/29 06:49:06;;;;;;;50.93;29.67;;;3.50;99.90;;;;;;5021185;28;20228;-83
2022/11/29 06:51:44;;;;;;;49.80;30.70;;;3.50;99.90;;;;;;5013396;28;20301;-80
2022/11/29 06:54:25;;;;;;;49.27;29.97;;;3.50;99.90;;;;;;5021719;28;20304;-82
2022/11/29 06:57:05;;;;;;;50.03;29.50;;;3.50;99.90;;;;;;5013775;28;20243;-78
2022/11/29 06:59:50;;;;;;;46.67;28.67;;;3.50;99.90;;;;;;5023445;28;20317;-77
2022/11/29 07:02:30;;;;;;;51.57;29.37;;;3.50;99.90;;;;;;5026316;28;20248;-77
2022/11/29 07:05:09;;;;;;;45.97;29.53;;;3.50;99.90;;;;;;5027018;28;20252;-78
2022/11/29 07:07:37;;;;;;;51.53;30.23;;;3.50;99.90;;;;;;5035070;28;20940;-77
2022/11/29 07:10:05;;;;;;;50.70;30.90;;;3.60;99.90;;;;;;5030529;28;20697;-78
2022/11/29 07:12:32;;;;;;;51.90;30.83;;;3.50;99.90;;;;;;5022961;28;20230;-78
2022/11/29 07:14:59;;;;;;;48.43;29.73;;;3.60;99.90;;;;;;5017586;28;20229;-77
2022/11/29 07:17:39;;;;;;;49.93;28.90;;;3.60;99.90;;;;;;5023061;28;20226;-78
2022/11/29 07:20:15;;;;;;;49.90;30.57;;;3.60;99.90;;;;;;5036436;28;20285;-78
2022/11/29 07:22:55;;;;;;;51.57;30.23;;;3.60;99.90;;;;;;5029125;28;20236;-77
2022/11/29 07:25:30;;;;;;;51.30;31.37;;;3.60;99.90;;;;;;5026095;28;20759;-77
2022/11/29 07:28:09;;;;;;;48.80;30.37;;;3.60;99.90;;;;;;5026970;28;20220;-77
2022/11/29 07:30:45;;;;;;;50.50;29.50;;;3.60;99.90;;;;;;5025327;28;20332;-78
2022/11/29 07:33:20;;;;;;;47.97;30.20;;;3.60;99.90;;;;;;5029159;28;20235;-78
2022/11/29 07:35:56;;;;;;;50.87;30.83;;;3.60;99.90;;;;;;5027647;28;20234;-78
2022/11/29 07:38:44;;;;;;;45.20;28.80;;;3.60;99.90;;;;;;5027694;28;20223;-78
2022/11/29 07:41:17;;;;;;;48.70;30.17;;;3.60;99.90;;;;;;5014316;28;20438;-78
2022/11/29 07:43:53;;;;;;;46.10;29.17;;;3.60;99.90;;;;;;5026081;28;20792;-77
2022/11/29 07:46:20;;;;;;;50.03;29.83;;;3.70;99.90;;;;;;5030740;28;20240;-78
2022/11/29 07:48:48;;;;;;;47.50;29.27;;;3.70;99.90;;;;;;5027599;28;20931;-78
2022/11/29 07:51:15;;;;;;;52.07;30.83;;;3.70;99.90;;;;;;5028419;28;20228;-77
2022/11/29 07:53:43;;;;;;;50.07;31.20;;;3.70;99.90;;;;;;5026911;28;20229;-77
2022/11/29 07:56:11;;;;;;;45.17;29.77;;;3.70;99.90;;;;;;5024346;28;20218;-78
2022/11/29 07:58:39;;;;;;;51.70;30.37;;;3.70;99.90;;;;;;5017992;28;20221;-77
2022/11/29 08:01:07;;;;;;;47.23;29.00;;;3.70;99.90;;;;;;5023633;28;20669;-77
2022/11/29 08:03:34;;;;;;;51.00;30.33;;;3.70;99.90;;;;;;5027617;28;20236;-77
2022/11/29 08:06:03;;;;;;;48.60;30.40;;;3.70;99.90;;;;;;5030505;28;20240;-78
2022/11/29 08:08:31;;;;;;;47.17;29.20;;;3.80;99.90;;;;;;5032024;28;20617;-78
2022/11/29 08:11:00;;;;;;;47.47;29.90;;;3.80;99.90;;;;;;5045621;28;20527;-77
2022/11/29 08:13:27;;;;;;;46.03;29.37;;;3.80;99.90;;;;;;5035604;28;20267;-77
2022/11/29 08:15:53;;;;;;;43.57;29.17;;;3.80;99.90;;;;;;5035933;28;20615;-78
2022/11/29 08:18:20;;;;;;;45.23;29.30;;;3.80;99.90;;;;;;5029293;28;20599;-77
2022/11/29 08:20:47;;;;;;;51.13;30.40;;;3.80;99.90;;;;;;5024379;28;20222;-78
2022/11/29 08:23:15;;;;;;;48.27;29.63;;;3.80;99.90;;;;;;5032569;28;20224;-78
2022/11/29 08:25:42;;;;;;;46.63;28.63;;;3.90;99.90;;;;;;5020588;28;20220;-78
2022/11/29 08:28:09;;;;;;;49.60;30.90;;;3.90;99.90;;;;;;5029570;28;20221;-78
2022/11/29 08:30:36;;;;;;;45.57;29.10;;;3.90;99.90;;;;;;5039619;28;20735;-78
2022/11/29 08:33:08;;;;;;;47.27;29.77;;;3.90;99.90;;;;;;5026780;28;20615;-78
2022/11/29 08:35:35;;;;;;;45.27;28.37;;;3.90;99.90;;;;;;5029255;28;20220;-78
2022/11/29 08:38:03;;;;;;;46.77;30.10;;;3.90;99.90;;;;;;5016098;28;20219;-78
2022/11/29 08:40:31;;;;;;;47.43;28.87;;;4.00;99.90;;;;;;5024540;28;20231;-78
2022/11/29 08:43:01;;;;;;;46.80;29.27;;;4.00;99.90;;;;;;5026416;28;20686;-77
2022/11/29 08:45:27;;;;;;;45.23;28.97;;;4.00;99.90;;;;;;5027532;28;20225;-78
2022/11/29 08:47:57;;;;;;;44.13;28.20;;;4.00;99.90;;;;;;5042196;28;20219;-77
2022/11/29 08:50:24;;;;;;;45.03;28.93;;;4.00;99.90;;;;;;5040291;28;20635;-78
2022/11/29 08:55:41;;;;;;;46.73;28.40;;;4.00;99.90;;;;;;5028218;28;20721;-78
2022/11/29 08:58:10;;;;;;;47.50;28.77;;;4.10;99.90;;;;;;5033398;28;20216;-78
2022/11/29 09:00:39;;;;;;;44.90;28.37;;;4.10;99.90;;;;;;5048017;28;20240;-78
2022/11/29 09:05:52;;;;;;;52.07;30.77;;;4.10;99.90;;;;;;5020108;28;20222;-78
2022/11/29 09:08:20;;;;;;;45.10;28.73;;;4.20;99.90;;;;;;5027100;28;20524;-78
2022/11/29 09:10:49;;;;;;;47.63;29.80;;;4.20;99.90;;;;;;5037453;28;20496;-77
2022/11/29 09:13:16;;;;;;;44.70;29.60;;;4.20;99.90;;;;;;5016560;28;20229;-78
2022/11/29 09:15:43;;;;;;;47.70;29.20;;;4.20;99.90;;;;;;5027763;28;20253;-77
2022/11/29 09:18:10;;;;;;;44.03;29.90;;;4.20;99.90;;;;;;5031051;28;20529;-77
2022/11/29 09:20:41;;;;;;;44.83;28.97;;;4.20;99.90;;;;;;5034002;28;20228;-78
2022/11/29 09:23:08;;;;;;;43.20;29.43;;;4.20;99.90;;;;;;5020333;28;20224;-78
2022/11/29 09:25:34;;;;;;;46.00;29.03;;;4.30;99.90;;;;;;5030234;28;20225;-78
2022/11/29 09:28:04;;;;;;;47.07;30.17;;;4.30;99.90;;;;;;5027355;28;20224;-77
2022/11/29 09:30:32;;;;;;;45.90;30.03;;;4.30;99.90;;;;;;5038438;28;20213;-77
2022/11/29 09:33:01;;;;;;;47.80;31.07;;;4.30;99.90;;;;;;5035972;28;20305;-77
2022/11/29 09:35:28;;;;;;;48.10;29.60;;;4.30;99.90;;;;;;5032453;28;20239;-77
2022/11/29 09:37:54;;;;;;;48.93;30.13;;;4.40;99.90;;;;;;5019839;28;20221;-77
2022/11/29 09:40:31;;;;;;;46.17;30.47;;;4.40;99.90;;;;;;5030146;28;20713;-77
2022/11/29 09:43:06;;;;;;;44.20;29.90;;;4.40;99.90;;;;;;5029944;28;20220;-77
2022/11/29 09:45:37;;;;;;;47.63;29.30;;;4.40;99.90;;;;;;5029011;28;20224;-78
2022/11/29 09:48:37;;;;;;;46.07;29.87;;;4.40;99.90;;;;;;5025581;28;20219;-78
2022/11/29 09:51:17;;;;;;;46.83;30.10;;;4.50;99.90;;;;;;5026922;28;20689;-78
2022/11/29 09:54:02;;;;;;;49.27;31.40;;;4.50;99.90;;;;;;5027147;28;20233;-77
2022/11/29 09:56:35;;;;;;;52.17;31.87;;;4.50;99.90;;;;;;5031055;28;20235;-77
2022/11/29 09:59:09;;;;;;;47.70;30.23;;;4.50;99.90;;;;;;5043844;28;20827;-78
2022/11/29 10:01:39;;;;;;;46.40;30.07;;;4.50;99.90;;;;;;5029466;28;20241;-77
2022/11/29 10:04:12;;;;;;;44.97;30.40;;;4.60;99.90;;;;;;5046334;28;20287;-78
2022/11/29 10:06:43;;;;;;;44.37;29.40;;;4.60;99.90;;;;;;5024014;28;20224;-77
2022/11/29 10:09:16;;;;;;;49.63;29.97;;;4.50;99.90;;;;;;5025283;28;20276;-78
2022/11/29 10:11:56;;;;;;;47.87;29.47;;;4.60;99.90;;;;;;5029447;28;20567;-78
2022/11/29 10:14:27;;;;;;;44.90;28.97;;;4.60;99.90;;;;;;5043037;28;20234;-78
2022/11/29 10:17:04;;;;;;;46.13;29.00;;;4.60;99.90;;;;;;5025338;28;20225;-77
2022/11/29 10:19:34;;;;;;;47.73;29.27;;;4.60;99.90;;;;;;5017888;28;20234;-78
2022/11/29 10:22:04;;;;;;;43.70;29.33;;;4.60;99.90;;;;;;5018730;28;20217;-77
2022/11/29 10:24:33;;;;;;;48.53;29.87;;;4.70;99.90;;;;;;5033228;28;20229;-77
2022/11/29 10:27:00;;;;;;;44.43;29.57;;;4.70;99.90;;;;;;5027455;28;20226;-77
2022/11/29 10:29:28;;;;;;;49.57;29.63;;;4.70;99.90;;;;;;5025957;28;20639;-78
2022/11/29 10:31:56;;;;;;;45.40;28.77;;;4.80;99.90;;;;;;5030810;28;20222;-77
2022/11/29 10:34:25;;;;;;;47.20;30.03;;;4.80;99.90;;;;;;5033195;28;20714;-78
2022/11/29 10:36:58;;;;;;;44.70;28.47;;;4.80;99.90;;;;;;5030211;28;20256;-78
2022/11/29 10:39:30;;;;;;;45.60;29.80;;;4.80;99.90;;;;;;5023926;28;20226;-77
2022/11/29 10:42:02;;;;;;;44.60;29.87;;;4.80;99.90;;;;;;5028394;28;20245;-78
2022/11/29 10:44:32;;;;;;;45.40;29.37;;;4.90;99.90;;;;;;5025985;28;20248;-78
2022/11/29 10:47:04;;;;;;;45.90;29.70;;;4.90;99.90;;;;;;5025840;28;20226;-78
2022/11/29 10:49:34;;;;;;;46.97;30.13;;;4.90;99.90;;;;;;5018433;28;20876;-78
2022/11/29 10:52:01;;;;;;;44.27;29.67;;;4.90;99.90;;;;;;5015839;28;20300;-77
2022/11/29 10:54:38;;;;;;;43.73;29.57;;;4.90;99.90;;;;;;5028826;28;20835;-77
2022/11/29 10:57:13;;;;;;;48.20;30.10;;;5.00;99.90;;;;;;5030417;28;20230;-78
2022/11/29 11:00:00;;;;;;;46.00;29.20;;;4.90;99.90;;;;;;5042895;28;20267;-78
2022/11/29 11:02:28;;;;;;;48.00;29.90;;;5.00;99.90;;;;;;5016981;28;20244;-77
2022/11/29 11:04:55;;;;;;;51.13;29.43;;;5.00;99.90;;;;;;5016767;28;20789;-77
2022/11/29 11:07:25;;;;;;;47.00;29.40;;;5.00;99.90;;;;;;5024069;28;20726;-77
2022/11/29 11:09:55;;;;;;;47.20;28.93;;;5.00;99.90;;;;;;5024103;28;20227;-78
2022/11/29 11:12:25;;;;;;;48.67;30.23;;;5.00;99.90;;;;;;5032685;28;20222;-78
2022/11/29 11:15:13;;;;;;;48.13;30.03;;;5.00;99.90;;;;;;5028034;28;20238;-78
2022/11/29 11:17:41;;;;;;;46.20;29.43;;;5.00;99.90;;;;;;5012312;28;20545;-77
2022/11/29 11:20:21;;;;;;;51.23;30.33;;;5.00;99.90;;;;;;5033115;28;20225;-77
2022/11/29 11:22:57;;;;;;;48.53;30.37;;;5.00;99.90;;;;;;5031707;28;20625;-77
2022/11/29 11:25:28;;;;;;;51.10;31.77;;;5.00;99.90;;;;;;5018200;28;20233;-77
2022/11/29 11:28:10;;;;;;;47.23;30.77;;;5.00;99.90;;;;;;5026964;28;20235;-77
2022/11/29 11:30:38;;;;;;;47.17;30.07;;;5.10;99.90;;;;;;5030520;28;20213;-77
2022/11/29 11:33:16;;;;;;;47.57;31.03;;;5.00;99.90;;;;;;5030083;28;20252;-78
2022/11/29 11:35:43;;;;;;;46.47;30.10;;;5.10;99.90;;;;;;5027493;28;20696;-78
2022/11/29 11:38:15;;;;;;;48.07;29.47;;;5.10;99.90;;;;;;5026692;28;20588;-78
2022/11/29 11:40:42;;;;;;;48.53;30.10;;;5.10;99.90;;;;;;5029744;28;20235;-77
2022/11/29 11:43:19;;;;;;;51.00;31.67;;;5.10;99.90;;;;;;5024909;28;20228;-78
2022/11/29 11:45:54;;;;;;;49.53;30.80;;;5.10;99.90;;;;;;5026240;28;20224;-78
2022/11/29 11:48:24;;;;;;;50.60;31.43;;;5.10;99.90;;;;;;5021449;28;20225;-77
2022/11/29 11:50:53;;;;;;;52.13;31.53;;;5.10;99.90;;;;;;5037227;28;20345;-77
2022/11/29 11:53:23;;;;;;;51.47;30.60;;;5.10;99.90;;;;;;5031044;28;20229;-78
2022/11/29 11:55:58;;;;;;;47.33;29.77;;;5.10;99.90;;;;;;5024452;28;20345;-78
2022/11/29 11:58:27;;;;;;;48.77;29.87;;;5.10;99.90;;;;;;5042764;28;20257;-77
2022/11/29 12:01:00;;;;;;;49.50;29.13;;;5.10;99.90;;;;;;5032094;28;20253;-78
2022/11/29 12:03:44;;;;;;;52.97;31.30;;;5.20;99.90;;;;;;5002833;28;20337;-77
2022/11/29 12:06:36;;;;;;;49.60;30.40;;;5.20;99.90;;;;;;5019346;28;20259;-81
2022/11/29 12:09:09;;;;;;;50.73;30.87;;;5.20;99.90;;;;;;5027283;28;20282;-78
2022/11/29 12:11:46;;;;;;;51.80;31.43;;;5.20;99.90;;;;;;5025325;28;20238;-76
2022/11/29 12:14:23;;;;;;;49.70;31.00;;;5.20;99.90;;;;;;5025717;28;20241;-75
2022/11/29 12:17:11;;;;;;;52.10;31.63;;;5.20;99.90;;;;;;5034060;28;20218;-76
2022/11/29 12:19:46;;;;;;;48.23;30.47;;;5.10;99.90;;;;;;5030926;28;20238;-76
2022/11/29 12:22:19;;;;;;;48.90;31.43;;;5.10;99.90;;;;;;5025478;28;20232;-75
2022/11/29 12:24:54;;;;;;;52.67;31.77;;;5.10;99.90;;;;;;5022151;28;20252;-76
2022/11/29 12:27:21;;;;;;;52.73;32.27;;;5.10;99.90;;;;;;5029835;28;20667;-76
2022/11/29 12:29:48;;;;;;;51.67;31.80;;;5.10;99.90;;;;;;5016822;28;20234;-76
2022/11/29 12:32:27;;;;;;;51.53;32.73;;;5.10;99.90;;;;;;5028391;28;20575;-76
2022/11/29 12:35:08;;;;;;;53.17;32.53;;;5.10;99.90;;;;;;5024403;28;20236;-76
2022/11/29 12:37:41;;;;;;;52.53;32.37;;;5.10;99.90;;;;;;5028992;28;20307;-76
2022/11/29 12:40:20;;;;;;;51.07;31.37;;;5.10;99.90;;;;;;5022971;28;20233;-76
2022/11/29 12:42:57;;;;;;;53.20;32.60;;;5.10;99.90;;;;;;5021868;28;20322;-76
2022/11/29 12:45:40;;;;;;;53.93;33.53;;;5.10;99.90;;;;;;5021409;28;20242;-76
2022/11/29 12:48:20;;;;;;;55.53;33.13;;;5.10;99.90;;;;;;5012991;28;20230;-76
2022/11/29 12:51:03;;;;;;;52.33;33.40;;;5.20;99.90;;;;;;5022577;28;20635;-76
2022/11/29 12:53:54;;;;;;;50.97;31.70;;;5.20;99.90;;;;;;5042866;28;20279;-76
2022/11/29 12:56:27;;;;;;;57.93;34.63;;;5.20;99.90;;;;;;5019198;28;20226;-76
2022/11/29 12:59:08;;;;;;;54.67;33.80;;;5.10;99.90;;;;;;5000640;28;20724;-76
2022/11/29 13:01:49;;;;;;;54.50;33.00;;;5.10;99.90;;;;;;5006804;28;20302;-76
2022/11/29 13:04:25;;;;;;;53.87;33.73;;;5.10;99.90;;;;;;5019808;28;20241;-76
2022/11/29 13:07:02;;;;;;;51.47;32.23;;;5.10;99.90;;;;;;5006610;28;20231;-76
2022/11/29 13:09:58;;;;;;;56.90;34.43;;;5.10;99.90;;;;;;5031581;28;20244;-76
2022/11/29 13:12:34;;;;;;;58.20;34.80;;;5.10;99.90;;;;;;5014532;28;20221;-76
2022/11/29 13:15:05;;;;;;;54.93;34.73;;;5.00;99.90;;;;;;5014723;28;20226;-76
2022/11/29 13:17:39;;;;;;;57.90;34.17;;;5.00;99.90;;;;;;5035026;28;20230;-76
2022/11/29 13:20:22;;;;;;;55.23;33.70;;;5.00;99.90;;;;;;5028233;28;20217;-76